sensor_id;sensor_type;location;lat;lon;timestamp;pressure;altitude;pressure_sealevel;temperature;humidity
3832;BME280;12460;42.662;23.288;2024-01-15T00:00:35;93964.66;;;0.16;56.73
3832;BME280;12460;42.662;23.288;2024-01-15T00:15:37;93957.28;;;0.00;57.18
3832;BME280;12460;42.662;23.288;2024-01-15T00:30:39;93968.34;;;0.00;56.76
3832;BME280;12460;42.662;23.288;2024-01-15T00:45:40;93983.63;;;0.01;57.70
3832;BME280;12460;42.662;23.288;2024-01-15T01:00:42;93975.91;;;-0.06;57.47
3832;BME280;12460;42.662;23.288;2024-01-15T01:15:45;93965.63;;;-0.06;57.59
3832;BME280;12460;42.662;23.288;2024-01-15T01:30:47;93927.63;;;-0.24;57.39
3832;BME280;12460;42.662;23.288;2024-01-15T01:45:49;93931.03;;;-0.12;57.62
3832;BME280;12460;42.662;23.288;2024-01-15T02:00:51;93917.22;;;-0.12;57.22
3832;BME280;12460;42.662;23.288;2024-01-15T02:15:53;93914.13;;;-0.03;56.53
3832;BME280;12460;42.662;23.288;2024-01-15T02:30:55;93869.44;;;-0.31;56.95
3832;BME280;12460;42.662;23.288;2024-01-15T02:45:57;93866.25;;;-0.35;56.70
3832;BME280;12460;42.662;23.288;2024-01-15T03:00:59;93838.31;;;-0.32;57.48
3832;BME280;12460;42.662;23.288;2024-01-15T03:16:01;93852.75;;;0.04;57.21
3832;BME280;12460;42.662;23.288;2024-01-15T03:31:03;93826.06;;;-0.12;58.12
3832;BME280;12460;42.662;23.288;2024-01-15T03:46:05;93835.13;;;0.07;58.33
3832;BME280;12460;42.662;23.288;2024-01-15T04:01:11;93833.72;;;0.19;58.07
3832;BME280;12460;42.662;23.288;2024-01-15T04:16:13;93817.97;;;0.14;57.74
3832;BME280;12460;42.662;23.288;2024-01-15T04:31:23;93821.25;;;-0.30;59.23
3832;BME280;12460;42.662;23.288;2024-01-15T04:46:26;93813.69;;;-0.30;58.88
3832;BME280;12460;42.662;23.288;2024-01-15T05:01:36;93793.34;;;-0.27;59.16
3832;BME280;12460;42.662;23.288;2024-01-15T05:16:39;93755.00;;;-0.54;59.51
3832;BME280;12460;42.662;23.288;2024-01-15T05:31:41;93781.09;;;-0.55;60.67
3832;BME280;12460;42.662;23.288;2024-01-15T05:46:43;93753.75;;;-0.53;60.70
3832;BME280;12460;42.662;23.288;2024-01-15T06:01:45;93763.38;;;-0.41;60.10
3832;BME280;12460;42.662;23.288;2024-01-15T06:16:47;93765.81;;;-0.14;59.97
3832;BME280;12460;42.662;23.288;2024-01-15T06:31:49;93756.69;;;0.66;58.95
3832;BME280;12460;42.662;23.288;2024-01-15T06:46:51;93753.94;;;1.11;58.04
3832;BME280;12460;42.662;23.288;2024-01-15T07:01:53;93762.31;;;1.50;56.83
3832;BME280;12460;42.662;23.288;2024-01-15T07:16:55;93789.06;;;1.61;56.16
3832;BME280;12460;42.662;23.288;2024-01-15T07:31:57;93766.03;;;1.66;55.91
3832;BME280;12460;42.662;23.288;2024-01-15T07:46:59;93767.22;;;1.96;55.62
3832;BME280;12460;42.662;23.288;2024-01-15T08:02:00;93749.72;;;1.88;55.10
3832;BME280;12460;42.662;23.288;2024-01-15T08:17:03;93772.22;;;1.72;55.86
3832;BME280;12460;42.662;23.288;2024-01-15T08:32:05;93762.84;;;2.01;54.57
3832;BME280;12460;42.662;23.288;2024-01-15T08:47:07;93735.06;;;2.61;53.46
3832;BME280;12460;42.662;23.288;2024-01-15T09:02:09;93697.34;;;3.27;53.14
3832;BME280;12460;42.662;23.288;2024-01-15T09:17:11;93664.50;;;3.46;52.00
3832;BME280;12460;42.662;23.288;2024-01-15T09:32:13;93647.50;;;4.59;50.51
3832;BME280;12460;42.662;23.288;2024-01-15T09:47:15;93600.19;;;8.48;42.56
3832;BME280;12460;42.662;23.288;2024-01-15T10:02:17;93567.84;;;9.84;38.48
3832;BME280;12460;42.662;23.288;2024-01-15T10:17:20;93551.13;;;11.15;35.36
3832;BME280;12460;42.662;23.288;2024-01-15T10:32:22;93522.78;;;11.53;34.21
3832;BME280;12460;42.662;23.288;2024-01-15T10:47:26;93513.31;;;10.97;34.43
3832;BME280;12460;42.662;23.288;2024-01-15T11:02:28;93507.47;;;10.83;35.29
3832;BME280;12460;42.662;23.288;2024-01-15T11:18:00;93478.25;;;12.15;33.34
3832;BME280;12460;42.662;23.288;2024-01-15T11:33:33;93467.59;;;11.81;33.09
3832;BME280;12460;42.662;23.288;2024-01-15T11:48:42;93469.25;;;10.19;36.08
3832;BME280;12460;42.662;23.288;2024-01-15T12:03:47;93418.66;;;9.11;37.86
3832;BME280;12460;42.662;23.288;2024-01-15T12:18:50;93394.50;;;8.41;39.68
3832;BME280;12460;42.662;23.288;2024-01-15T12:33:52;93413.06;;;8.10;41.38
3832;BME280;12460;42.662;23.288;2024-01-15T12:48:55;93361.00;;;7.88;41.42
3832;BME280;12460;42.662;23.288;2024-01-15T13:03:57;93381.00;;;7.58;42.20
3832;BME280;12460;42.662;23.288;2024-01-15T13:19:00;93352.56;;;7.08;43.97
3832;BME280;12460;42.662;23.288;2024-01-15T13:34:02;93332.38;;;7.00;43.79
3832;BME280;12460;42.662;23.288;2024-01-15T13:49:05;93345.81;;;6.84;44.94
3832;BME280;12460;42.662;23.288;2024-01-15T14:04:07;93326.06;;;6.82;45.00
3832;BME280;12460;42.662;23.288;2024-01-15T14:19:09;93332.97;;;6.64;45.60
3832;BME280;12460;42.662;23.288;2024-01-15T14:34:11;93309.91;;;6.29;46.97
3832;BME280;12460;42.662;23.288;2024-01-15T14:49:14;93255.56;;;5.96;47.10
3832;BME280;12460;42.662;23.288;2024-01-15T15:04:16;93283.69;;;5.66;48.38
3832;BME280;12460;42.662;23.288;2024-01-15T15:19:18;93289.66;;;5.62;49.64
3832;BME280;12460;42.662;23.288;2024-01-15T15:34:20;93283.31;;;5.45;50.18
3832;BME280;12460;42.662;23.288;2024-01-15T15:49:22;93297.75;;;5.26;50.48
3832;BME280;12460;42.662;23.288;2024-01-15T16:04:24;93302.13;;;5.37;49.94
3832;BME280;12460;42.662;23.288;2024-01-15T16:19:27;93268.56;;;5.27;50.53
3832;BME280;12460;42.662;23.288;2024-01-15T16:34:49;93275.38;;;5.09;51.40
3832;BME280;12460;42.662;23.288;2024-01-15T16:49:51;93259.97;;;5.08;51.92
3832;BME280;12460;42.662;23.288;2024-01-15T17:04:53;93245.59;;;4.94;51.94
3832;BME280;12460;42.662;23.288;2024-01-15T17:19:54;93254.56;;;4.85;53.30
3832;BME280;12460;42.662;23.288;2024-01-15T17:34:56;93252.88;;;4.82;54.65
3832;BME280;12460;42.662;23.288;2024-01-15T17:50:00;93238.97;;;4.82;54.39
3832;BME280;12460;42.662;23.288;2024-01-15T18:05:02;93241.59;;;4.80;54.38
3832;BME280;12460;42.662;23.288;2024-01-15T18:20:04;93206.22;;;4.66;55.28
3832;BME280;12460;42.662;23.288;2024-01-15T18:35:08;93231.91;;;4.81;55.08
3832;BME280;12460;42.662;23.288;2024-01-15T18:50:10;93204.84;;;4.74;54.34
3832;BME280;12460;42.662;23.288;2024-01-15T19:05:12;93225.00;;;4.90;56.06
3832;BME280;12460;42.662;23.288;2024-01-15T19:20:14;93196.13;;;4.46;58.47
3832;BME280;12460;42.662;23.288;2024-01-15T19:35:16;93217.97;;;4.49;58.26
3832;BME280;12460;42.662;23.288;2024-01-15T19:50:18;93220.53;;;4.22;59.12
3832;BME280;12460;42.662;23.288;2024-01-15T20:05:20;93216.59;;;4.25;58.95
3832;BME280;12460;42.662;23.288;2024-01-15T20:20:22;93189.69;;;4.36;59.25
3832;BME280;12460;42.662;23.288;2024-01-15T20:35:25;93180.28;;;4.56;59.85
3832;BME280;12460;42.662;23.288;2024-01-15T20:50:27;93179.31;;;4.61;59.95
3832;BME280;12460;42.662;23.288;2024-01-15T21:05:30;93157.34;;;4.48;59.76
3832;BME280;12460;42.662;23.288;2024-01-15T21:20:33;93130.34;;;4.33;61.01
3832;BME280;12460;42.662;23.288;2024-01-15T21:35:35;93151.19;;;4.49;60.24
3832;BME280;12460;42.662;23.288;2024-01-15T21:50:37;93145.13;;;4.43;60.89
3832;BME280;12460;42.662;23.288;2024-01-15T22:05:39;93117.97;;;4.51;59.41
3832;BME280;12460;42.662;23.288;2024-01-15T22:20:43;93096.41;;;4.35;58.91
3832;BME280;12460;42.662;23.288;2024-01-15T22:35:45;93112.56;;;4.29;59.79
3832;BME280;12460;42.662;23.288;2024-01-15T22:50:47;93137.22;;;4.32;58.84
3832;BME280;12460;42.662;23.288;2024-01-15T23:05:50;93119.81;;;4.24;59.51
3832;BME280;12460;42.662;23.288;2024-01-15T23:20:53;93097.06;;;4.18;59.45
3832;BME280;12460;42.662;23.288;2024-01-15T23:35:55;93041.28;;;3.84;60.78
3832;BME280;12460;42.662;23.288;2024-01-15T23:50:58;93068.56;;;4.02;60.49
